createdAt,value
2018-11-07T00:00:55.544Z,9.84
2018-11-07T00:01:55.529Z,9.84
2018-11-07T00:02:55.574Z,9.81
2018-11-07T00:03:55.478Z,9.86
2018-11-07T00:04:55.458Z,9.87
2018-11-07T00:05:55.438Z,9.90
2018-11-07T00:06:55.427Z,9.93
2018-11-07T00:07:55.492Z,9.84
2018-11-07T00:08:55.373Z,9.91
2018-11-07T00:09:55.351Z,9.90
2018-11-07T00:10:55.331Z,9.94
2018-11-07T00:11:55.310Z,9.91
2018-11-07T00:12:55.287Z,9.91
2018-11-07T00:13:55.273Z,9.90
2018-11-07T00:14:55.266Z,9.89
2018-11-07T00:15:55.223Z,9.84
2018-11-07T00:16:55.201Z,9.87
2018-11-07T00:17:55.186Z,9.86
2018-11-07T00:18:55.159Z,9.86
2018-11-07T00:19:55.139Z,9.86
2018-11-07T00:20:55.117Z,9.83
2018-11-07T00:21:55.096Z,9.86
2018-11-07T00:22:55.077Z,9.79
2018-11-07T00:23:55.055Z,9.83
2018-11-07T00:24:55.033Z,9.76
2018-11-07T00:25:55.011Z,9.79
2018-11-07T00:26:54.990Z,9.72
2018-11-07T00:27:54.968Z,9.79
2018-11-07T00:28:54.947Z,9.72
2018-11-07T00:29:54.939Z,9.75
2018-11-07T00:30:54.904Z,9.72
2018-11-07T00:31:54.883Z,9.74
2018-11-07T00:32:54.860Z,9.68
2018-11-07T00:33:54.840Z,9.74
2018-11-07T00:34:54.878Z,9.65
2018-11-07T00:35:54.799Z,9.65
2018-11-07T00:36:54.775Z,9.58
2018-11-07T00:37:54.763Z,9.56
2018-11-07T00:38:54.736Z,9.50
2018-11-07T00:39:54.712Z,9.56
2018-11-07T00:40:54.693Z,9.54
2018-11-07T00:41:54.677Z,9.56
2018-11-07T00:42:54.650Z,9.54
2018-11-07T00:43:54.629Z,9.54
2018-11-07T00:44:54.612Z,9.51
2018-11-07T00:45:54.596Z,9.47
2018-11-07T00:46:54.563Z,9.50
2018-11-07T00:47:54.544Z,9.29
2018-11-07T00:48:54.524Z,9.32
2018-11-07T00:49:54.497Z,9.33
2018-11-07T00:50:54.476Z,9.40
2018-11-07T00:51:54.456Z,9.38
2018-11-07T00:52:54.440Z,9.46
2018-11-07T00:53:54.411Z,9.36
2018-11-07T00:54:54.390Z,9.46
2018-11-07T00:55:54.374Z,9.33
2018-11-07T00:56:54.352Z,9.35
2018-11-07T00:57:54.345Z,9.42
2018-11-07T00:58:54.308Z,9.31
2018-11-07T00:59:54.286Z,9.40
2018-11-07T01:00:54.271Z,9.36
2018-11-07T01:01:54.241Z,9.42
2018-11-07T01:02:54.224Z,9.43
2018-11-07T01:03:54.203Z,9.46
2018-11-07T01:04:54.182Z,9.35
2018-11-07T01:05:54.159Z,9.43
2018-11-07T01:06:54.135Z,9.43
2018-11-07T01:07:54.119Z,9.39
2018-11-07T01:08:54.092Z,9.35
2018-11-07T01:09:54.072Z,9.33
2018-11-07T01:10:54.050Z,9.35
2018-11-07T01:11:54.032Z,9.33
2018-11-07T01:12:54.008Z,9.29
2018-11-07T01:13:53.987Z,9.23
2018-11-07T01:14:53.980Z,9.26
2018-11-07T01:15:53.943Z,9.24
2018-11-07T01:16:53.925Z,9.23
2018-11-07T01:17:53.898Z,9.24
2018-11-07T01:18:53.882Z,9.31
2018-11-07T01:19:53.862Z,9.40
2018-11-07T01:20:53.837Z,9.39
2018-11-07T01:21:53.813Z,9.26
2018-11-07T01:22:53.791Z,9.29
2018-11-07T01:23:53.770Z,9.38
2018-11-07T01:24:53.752Z,9.29
2018-11-07T01:25:53.730Z,9.32
2018-11-07T01:26:53.709Z,9.42
2018-11-07T01:27:53.685Z,9.39
2018-11-07T01:28:53.669Z,9.36
2018-11-07T01:29:53.642Z,9.47
2018-11-07T01:30:53.625Z,9.46
2018-11-07T01:31:53.599Z,9.57
2018-11-07T01:32:53.578Z,9.60
2018-11-07T01:33:53.557Z,9.48
2018-11-07T01:34:53.541Z,9.43
2018-11-07T01:35:53.516Z,9.47
2018-11-07T01:36:53.491Z,9.53
2018-11-07T01:37:53.472Z,9.48
2018-11-07T01:38:53.452Z,9.61
2018-11-07T01:39:53.436Z,9.57
2018-11-07T01:40:53.416Z,9.64
2018-11-07T01:41:53.439Z,9.56
2018-11-07T01:42:53.363Z,9.68
2018-11-07T01:43:53.347Z,9.74
2018-11-07T01:44:53.324Z,9.66
2018-11-07T01:45:53.301Z,9.66
2018-11-07T01:46:53.283Z,9.76
2018-11-07T01:47:53.257Z,9.68
2018-11-07T01:48:53.235Z,9.68
2018-11-07T01:49:53.213Z,9.68
2018-11-07T01:50:53.192Z,9.61
2018-11-07T01:51:53.171Z,9.64
2018-11-07T01:52:53.148Z,9.66
2018-11-07T01:53:53.131Z,9.66
2018-11-07T01:54:53.107Z,9.64
2018-11-07T01:55:53.085Z,9.68
2018-11-07T01:56:53.066Z,9.65
2018-11-07T01:57:53.042Z,9.71
2018-11-07T01:58:53.022Z,9.66
2018-11-07T01:59:52.999Z,9.71
2018-11-07T02:00:52.991Z,9.69
2018-11-07T02:01:52.959Z,9.69
2018-11-07T02:02:52.935Z,9.68
2018-11-07T02:03:52.913Z,9.72
2018-11-07T02:04:52.893Z,9.75
2018-11-07T02:05:52.871Z,9.81
2018-11-07T02:06:52.849Z,9.83
2018-11-07T02:07:52.827Z,9.81
2018-11-07T02:08:52.807Z,9.90
2018-11-07T02:09:52.784Z,9.87
2018-11-07T02:10:52.763Z,9.83
2018-11-07T02:11:52.743Z,9.86
2018-11-07T02:12:52.721Z,9.87
2018-11-07T02:13:52.706Z,9.89
2018-11-07T02:14:52.676Z,9.84
2018-11-07T02:15:52.656Z,9.86
2018-11-07T02:16:52.635Z,9.83
2018-11-07T02:17:52.617Z,9.84
2018-11-07T02:18:52.593Z,9.79
2018-11-07T02:19:52.571Z,9.81
2018-11-07T02:20:52.554Z,9.74
2018-11-07T02:21:52.530Z,9.76
2018-11-07T02:22:52.516Z,9.78
2018-11-07T02:23:52.485Z,9.76
2018-11-07T02:24:52.465Z,9.75
2018-11-07T02:25:52.451Z,9.83
2018-11-07T02:26:52.432Z,9.72
2018-11-07T02:27:52.401Z,9.75
2018-11-07T02:28:52.379Z,9.68
2018-11-07T02:29:52.356Z,9.65
2018-11-07T02:30:52.336Z,9.57
2018-11-07T02:31:52.315Z,9.61
2018-11-07T02:32:52.293Z,9.60
2018-11-07T02:33:52.278Z,9.57
2018-11-07T02:34:52.250Z,9.57
2018-11-07T02:35:52.229Z,9.60
2018-11-07T02:36:52.249Z,9.47
2018-11-07T02:37:52.189Z,9.35
2018-11-07T02:38:52.166Z,9.38
2018-11-07T02:39:52.143Z,9.36
2018-11-07T02:40:52.122Z,9.39
2018-11-07T02:41:52.153Z,9.38
2018-11-07T02:42:52.079Z,9.40
2018-11-07T02:43:52.058Z,9.35
2018-11-07T02:44:52.037Z,9.36
2018-11-07T02:45:52.015Z,9.32
2018-11-07T02:46:52.002Z,9.42
2018-11-07T02:47:51.971Z,9.36
2018-11-07T02:48:51.952Z,9.40
2018-11-07T02:49:51.929Z,9.42
2018-11-07T02:50:51.913Z,9.43
2018-11-07T02:51:51.891Z,9.50
2018-11-07T02:52:51.865Z,9.47
2018-11-07T02:53:51.847Z,9.36
2018-11-07T02:54:51.829Z,9.32
2018-11-07T02:55:51.800Z,9.40
2018-11-07T02:56:51.779Z,9.32
2018-11-07T02:57:51.760Z,9.40
2018-11-07T02:58:51.750Z,9.42
2018-11-07T02:59:51.718Z,9.42
2018-11-07T03:00:51.693Z,9.46
2018-11-07T03:01:51.671Z,9.50
2018-11-07T03:02:51.650Z,9.39
2018-11-07T03:03:51.626Z,9.43
2018-11-07T03:04:51.608Z,9.39
2018-11-07T03:05:51.588Z,9.42
2018-11-07T03:06:51.566Z,9.33
2018-11-07T03:07:51.544Z,9.38
2018-11-07T03:08:51.521Z,9.38
2018-11-07T03:09:51.534Z,9.36
2018-11-07T03:10:51.480Z,9.39
2018-11-07T03:11:51.457Z,9.48
2018-11-07T03:12:51.436Z,9.39
2018-11-07T03:13:51.419Z,9.39
2018-11-07T03:14:51.394Z,9.47
2018-11-07T03:15:51.371Z,9.43
2018-11-07T03:16:51.349Z,9.39
2018-11-07T03:17:51.329Z,9.43
2018-11-07T03:18:51.312Z,9.46
2018-11-07T03:19:51.288Z,9.42
2018-11-07T03:20:51.265Z,9.51
2018-11-07T03:21:51.244Z,9.48
2018-11-07T03:22:51.223Z,9.40
2018-11-07T03:23:51.201Z,9.51
2018-11-07T03:24:51.187Z,9.46
2018-11-07T03:25:51.158Z,9.46
2018-11-07T03:26:51.137Z,9.42
2018-11-07T03:27:51.122Z,9.47
2018-11-07T03:28:51.107Z,9.38
2018-11-07T03:29:51.076Z,9.35
2018-11-07T03:30:51.050Z,9.33
2018-11-07T03:31:51.031Z,9.29
2018-11-07T03:32:51.011Z,9.32
2018-11-07T03:33:50.989Z,9.39
2018-11-07T03:34:50.970Z,9.31
2018-11-07T03:35:50.946Z,9.33
2018-11-07T03:36:50.925Z,9.38
2018-11-07T03:37:50.905Z,9.24
2018-11-07T03:38:50.880Z,9.29
2018-11-07T03:39:50.873Z,9.31
2018-11-07T03:40:50.836Z,9.29
2018-11-07T03:41:50.813Z,9.32
2018-11-07T03:42:50.794Z,9.28
2018-11-07T03:43:50.775Z,9.32
2018-11-07T03:44:50.755Z,9.35
2018-11-07T03:45:50.732Z,9.28
2018-11-07T03:46:50.723Z,9.29
2018-11-07T03:47:50.688Z,9.21
2018-11-07T03:48:50.663Z,9.20
2018-11-07T03:49:50.642Z,9.24
2018-11-07T03:50:50.628Z,9.15
2018-11-07T03:51:50.606Z,9.11
2018-11-07T03:52:50.580Z,9.14
2018-11-07T03:53:50.558Z,9.15
2018-11-07T03:54:50.536Z,9.13
2018-11-07T03:55:50.513Z,9.05
2018-11-07T03:56:50.493Z,9.05
2018-11-07T03:57:50.471Z,9.04
2018-11-07T03:58:50.458Z,9.05
2018-11-07T03:59:50.431Z,9.04
2018-11-07T04:00:50.408Z,8.95
2018-11-07T04:01:50.388Z,8.92
2018-11-07T04:02:50.364Z,8.89
2018-11-07T04:03:50.349Z,8.87
2018-11-07T04:04:50.321Z,8.81
2018-11-07T04:05:50.304Z,8.86
2018-11-07T04:06:50.282Z,8.77
2018-11-07T04:07:50.261Z,8.84
2018-11-07T04:08:50.237Z,8.94
2018-11-07T04:09:50.214Z,8.84
2018-11-07T04:10:50.191Z,8.91
2018-11-07T04:11:50.169Z,8.94
2018-11-07T04:12:50.152Z,8.96
2018-11-07T04:13:50.125Z,9.05
2018-11-07T04:14:50.107Z,8.96
2018-11-07T04:15:50.084Z,9.02
2018-11-07T04:16:50.061Z,9.01
2018-11-07T04:17:50.041Z,8.98
2018-11-07T04:18:50.018Z,9.05
2018-11-07T04:19:49.996Z,9.08
2018-11-07T04:20:49.975Z,9.14
2018-11-07T04:21:49.953Z,9.14
2018-11-07T04:22:49.930Z,9.13
2018-11-07T04:23:49.913Z,9.11
2018-11-07T04:24:49.891Z,9.18
2018-11-07T04:25:49.867Z,9.28
2018-11-07T04:26:49.848Z,9.31
2018-11-07T04:27:49.825Z,9.26
2018-11-07T04:28:49.806Z,9.26
2018-11-07T04:29:49.790Z,9.36
2018-11-07T04:30:49.772Z,9.32
2018-11-07T04:31:49.748Z,9.29
2018-11-07T04:32:49.719Z,9.31
2018-11-07T04:33:49.694Z,9.28
2018-11-07T04:34:49.673Z,9.38
2018-11-07T04:35:49.651Z,9.21
2018-11-07T04:36:49.628Z,9.31
2018-11-07T04:37:49.607Z,9.29
2018-11-07T04:38:49.600Z,9.33
2018-11-07T04:39:49.564Z,9.31
2018-11-07T04:40:49.542Z,9.36
2018-11-07T04:41:49.522Z,9.32
2018-11-07T04:42:49.502Z,9.38
2018-11-07T04:43:49.484Z,9.36
2018-11-07T04:44:49.455Z,9.39
2018-11-07T04:45:49.438Z,9.31
2018-11-07T04:46:49.413Z,9.32
2018-11-07T04:47:49.393Z,9.35
2018-11-07T04:48:49.371Z,9.43
2018-11-07T04:49:49.349Z,9.35
2018-11-07T04:50:49.327Z,9.29
2018-11-07T04:51:49.314Z,9.36
2018-11-07T04:52:49.288Z,9.39
2018-11-07T04:53:49.262Z,9.46
2018-11-07T04:54:49.249Z,9.50
2018-11-07T04:55:49.218Z,9.51
2018-11-07T04:56:49.198Z,9.47
2018-11-07T04:57:49.176Z,9.48
2018-11-07T04:58:49.155Z,9.51
2018-11-07T04:59:49.131Z,9.47
2018-11-07T05:00:49.115Z,9.46
2018-11-07T05:01:49.091Z,9.48
2018-11-07T05:02:49.078Z,9.42
2018-11-07T05:03:49.051Z,9.40
2018-11-07T05:04:49.026Z,9.43
2018-11-07T05:05:49.014Z,9.42
2018-11-07T05:06:48.984Z,9.50
2018-11-07T05:07:49.028Z,9.43
2018-11-07T05:08:48.972Z,9.50
2018-11-07T05:09:48.918Z,9.48
2018-11-07T05:10:48.899Z,9.50
2018-11-07T05:11:48.873Z,9.56
2018-11-07T05:12:48.854Z,9.57
2018-11-07T05:13:48.837Z,9.58
2018-11-07T05:14:48.811Z,9.57
2018-11-07T05:15:48.790Z,9.56
2018-11-07T05:16:48.768Z,9.57
2018-11-07T05:17:48.759Z,9.61
2018-11-07T05:18:48.724Z,9.57
2018-11-07T05:19:48.726Z,9.64
2018-11-07T05:20:48.689Z,9.58
2018-11-07T05:21:48.661Z,9.60
2018-11-07T05:22:48.642Z,9.60
2018-11-07T05:23:48.616Z,9.57
2018-11-07T05:24:48.602Z,9.60
2018-11-07T05:25:48.583Z,9.57
2018-11-07T05:26:48.555Z,9.56
2018-11-07T05:27:48.534Z,9.60
2018-11-07T05:28:48.512Z,9.61
2018-11-07T05:29:48.487Z,9.61
2018-11-07T05:30:48.471Z,9.61
2018-11-07T05:31:48.502Z,9.56
2018-11-07T05:32:48.466Z,9.58
2018-11-07T05:33:48.404Z,9.50
2018-11-07T05:34:48.381Z,9.56
2018-11-07T05:35:48.358Z,9.50
2018-11-07T05:36:48.341Z,9.50
2018-11-07T05:37:48.315Z,9.57
2018-11-07T05:38:48.295Z,9.48
2018-11-07T05:39:48.271Z,9.48
2018-11-07T05:40:48.251Z,9.43
2018-11-07T05:41:48.232Z,9.42
2018-11-07T05:42:48.210Z,9.46
2018-11-07T05:43:48.186Z,9.43
2018-11-07T05:44:48.165Z,9.40
2018-11-07T05:45:48.144Z,9.42
2018-11-07T05:46:48.122Z,9.39
2018-11-07T05:47:48.101Z,9.39
2018-11-07T05:48:48.090Z,9.48
2018-11-07T05:49:48.073Z,9.47
2018-11-07T05:50:48.037Z,9.58
2018-11-07T05:51:48.018Z,9.43
2018-11-07T05:52:47.993Z,9.47
2018-11-07T05:53:47.976Z,9.54
2018-11-07T05:54:47.950Z,9.51
2018-11-07T05:55:47.929Z,9.57
2018-11-07T05:56:47.909Z,9.64
2018-11-07T05:57:47.886Z,9.58
2018-11-07T05:58:47.864Z,9.60
2018-11-07T05:59:47.845Z,9.58
2018-11-07T06:00:47.824Z,9.53
2018-11-07T06:01:47.850Z,9.64
2018-11-07T06:02:47.778Z,9.65
2018-11-07T06:03:47.756Z,9.66
2018-11-07T06:04:47.736Z,9.64
2018-11-07T06:05:47.715Z,9.68
2018-11-07T06:06:47.700Z,9.65
2018-11-07T06:07:47.669Z,9.57
2018-11-07T06:08:47.654Z,9.57
2018-11-07T06:09:47.634Z,9.68
2018-11-07T06:10:47.605Z,9.53
2018-11-07T06:11:47.592Z,9.57
2018-11-07T06:12:47.565Z,9.57
2018-11-07T06:13:47.541Z,9.60
2018-11-07T06:14:47.519Z,9.65
2018-11-07T06:15:47.506Z,9.66
2018-11-07T06:16:47.485Z,9.64
2018-11-07T06:17:47.454Z,9.56
2018-11-07T06:18:47.446Z,9.61
2018-11-07T06:19:47.410Z,9.65
2018-11-07T06:20:47.391Z,9.64
2018-11-07T06:21:47.368Z,9.60
2018-11-07T06:22:47.345Z,9.65
2018-11-07T06:23:47.324Z,9.60
2018-11-07T06:24:47.372Z,9.72
2018-11-07T06:25:47.285Z,9.68
2018-11-07T06:26:47.259Z,9.58
2018-11-07T06:27:47.242Z,9.68
2018-11-07T06:28:47.216Z,9.60
2018-11-07T06:29:47.195Z,9.66
2018-11-07T06:30:47.175Z,9.72
2018-11-07T06:31:47.155Z,9.79
2018-11-07T06:32:47.134Z,9.76
2018-11-07T06:33:47.119Z,9.79
2018-11-07T06:34:47.090Z,9.76
2018-11-07T06:35:47.065Z,9.79
2018-11-07T06:36:47.045Z,9.81
2018-11-07T06:37:47.024Z,9.87
2018-11-07T06:38:47.009Z,9.76
2018-11-07T06:39:46.979Z,9.86
2018-11-07T06:40:46.958Z,9.79
2018-11-07T06:41:46.935Z,9.81
2018-11-07T06:42:46.918Z,9.74
2018-11-07T06:43:46.892Z,9.72
2018-11-07T06:44:46.871Z,9.68
2018-11-07T06:45:46.851Z,9.71
2018-11-07T06:46:46.829Z,9.65
2018-11-07T06:47:46.807Z,9.66
2018-11-07T06:48:46.787Z,9.56
2018-11-07T06:49:46.764Z,9.61
2018-11-07T06:50:46.743Z,9.60
2018-11-07T06:51:46.728Z,9.57
2018-11-07T06:52:46.700Z,9.58
2018-11-07T06:53:46.681Z,9.61
2018-11-07T06:54:46.658Z,9.58
2018-11-07T06:55:46.665Z,9.56
2018-11-07T06:56:46.615Z,9.54
2018-11-07T06:57:46.593Z,9.60
2018-11-07T06:58:46.571Z,9.54
2018-11-07T06:59:46.549Z,9.43
2018-11-07T07:00:46.532Z,9.43
2018-11-07T07:01:46.506Z,9.43
2018-11-07T07:02:46.490Z,9.38
2018-11-07T07:03:46.469Z,9.39
2018-11-07T07:04:46.444Z,9.35
2018-11-07T07:05:46.421Z,9.28
2018-11-07T07:06:46.399Z,9.21
2018-11-07T07:07:46.381Z,9.29
2018-11-07T07:08:46.368Z,9.18
2018-11-07T07:09:46.337Z,9.23
2018-11-07T07:10:46.316Z,9.11
2018-11-07T07:11:46.291Z,9.14
2018-11-07T07:12:46.273Z,9.17
2018-11-07T07:13:46.248Z,9.13
2018-11-07T07:14:46.235Z,9.13
2018-11-07T07:15:46.214Z,9.14
2018-11-07T07:16:46.196Z,9.11
2018-11-07T07:17:46.384Z,9.11
2018-11-07T07:18:46.145Z,9.23
2018-11-07T07:19:46.120Z,9.20
2018-11-07T07:20:46.128Z,9.28
2018-11-07T07:21:46.078Z,9.21
2018-11-07T07:22:46.055Z,9.17
2018-11-07T07:23:46.033Z,9.23
2018-11-07T07:24:46.015Z,9.26
2018-11-07T07:25:46.131Z,9.29
2018-11-07T07:26:45.970Z,9.28
2018-11-07T07:27:45.952Z,9.28
2018-11-07T07:28:45.926Z,9.26
2018-11-07T07:29:45.943Z,9.24
2018-11-07T07:30:45.895Z,9.23
2018-11-07T07:31:45.876Z,9.24
2018-11-07T07:32:45.844Z,9.24
2018-11-07T07:33:45.905Z,9.26
2018-11-07T07:34:45.799Z,9.18
2018-11-07T07:35:45.774Z,9.20
2018-11-07T07:36:45.763Z,9.24
2018-11-07T07:37:45.732Z,9.24
2018-11-07T07:38:45.711Z,9.21
2018-11-07T07:39:45.695Z,9.35
2018-11-07T07:40:45.677Z,9.36
2018-11-07T07:41:45.652Z,9.35
2018-11-07T07:42:45.627Z,9.33
2018-11-07T07:43:45.602Z,9.29
2018-11-07T07:44:45.582Z,9.29
2018-11-07T07:45:45.651Z,9.36
2018-11-07T07:46:45.558Z,9.48
2018-11-07T07:47:45.527Z,9.48
2018-11-07T07:48:45.496Z,9.47
2018-11-07T07:49:45.474Z,9.56
2018-11-07T07:50:45.452Z,9.56
2018-11-07T07:51:45.431Z,9.61
2018-11-07T07:52:45.410Z,9.51
2018-11-07T07:54:45.371Z,9.64
2018-11-07T07:55:45.350Z,9.61
2018-11-07T07:56:45.327Z,9.65
2018-11-07T07:57:45.304Z,9.66
2018-11-07T07:58:45.281Z,9.65
2018-11-07T07:59:45.259Z,9.75
2018-11-07T08:00:45.238Z,9.74
2018-11-07T08:01:45.216Z,9.64
2018-11-07T08:02:45.195Z,9.61
2018-11-07T08:03:45.183Z,9.71
2018-11-07T08:04:45.152Z,9.72
2018-11-07T08:05:45.130Z,9.78
2018-11-07T08:06:45.165Z,9.83
2018-11-07T08:07:45.098Z,9.84
2018-11-07T08:08:45.067Z,9.89
2018-11-07T08:09:45.044Z,9.96
2018-11-07T08:10:45.028Z,9.94
2018-11-07T08:11:45.001Z,10.04
2018-11-07T08:12:44.982Z,10.08
2018-11-07T08:13:44.984Z,10.15
2018-11-07T08:14:44.938Z,10.18
2018-11-07T08:15:44.914Z,10.22
2018-11-07T08:16:44.895Z,10.30
2018-11-07T08:17:44.878Z,10.36
2018-11-07T08:18:44.853Z,10.45
2018-11-07T08:19:44.829Z,10.41
2018-11-07T08:20:44.817Z,10.44
2018-11-07T08:21:44.797Z,10.47
2018-11-07T08:22:44.769Z,10.53
2018-11-07T08:23:44.744Z,10.55
2018-11-07T08:24:44.724Z,10.66
2018-11-07T08:25:44.702Z,10.64
2018-11-07T08:26:44.683Z,10.64
2018-11-07T08:27:44.659Z,10.73
2018-11-07T08:28:44.635Z,10.73
2018-11-07T08:29:44.620Z,10.78
2018-11-07T08:30:44.627Z,10.78
2018-11-07T08:31:44.576Z,10.85
2018-11-07T08:32:44.550Z,10.89
2018-11-07T08:33:44.536Z,10.89
2018-11-07T08:34:44.509Z,10.96
2018-11-07T08:35:44.498Z,11.02
2018-11-07T08:36:44.464Z,11.02
2018-11-07T08:37:44.445Z,10.96
2018-11-07T08:38:44.424Z,11.14
2018-11-07T08:39:44.407Z,11.10
2018-11-07T08:40:44.380Z,11.14
2018-11-07T08:41:44.361Z,11.09
2018-11-07T08:42:44.342Z,11.19
2018-11-07T08:43:44.317Z,11.17
2018-11-07T08:44:44.298Z,11.17
2018-11-07T08:45:44.273Z,11.17
2018-11-07T08:46:44.254Z,11.22
2018-11-07T08:47:44.231Z,11.21
2018-11-07T08:48:44.217Z,11.36
2018-11-07T08:49:44.195Z,11.37
2018-11-07T08:50:44.170Z,11.39
2018-11-07T08:51:44.145Z,11.39
2018-11-07T08:52:44.126Z,11.47
2018-11-07T08:53:44.103Z,11.43
2018-11-07T08:54:44.088Z,11.49
2018-11-07T08:55:44.063Z,11.46
2018-11-07T08:56:44.042Z,11.47
2018-11-07T08:57:44.023Z,11.52
2018-11-07T08:58:44.000Z,11.49
2018-11-07T08:59:43.979Z,11.51
2018-11-07T09:00:43.958Z,11.55
2018-11-07T09:01:43.945Z,11.51
2018-11-07T09:02:43.915Z,11.57
2018-11-07T09:03:43.893Z,11.61
2018-11-07T09:04:43.882Z,11.61
2018-11-07T09:05:43.852Z,11.65
2018-11-07T09:06:43.841Z,11.78
2018-11-07T09:07:43.808Z,11.85
2018-11-07T09:08:43.788Z,11.80
2018-11-07T09:09:43.775Z,11.90
2018-11-07T09:10:43.749Z,11.86
2018-11-07T09:11:43.728Z,11.96
2018-11-07T09:12:43.708Z,11.96
2018-11-07T09:13:43.685Z,11.99
2018-11-07T09:14:43.661Z,12.02
2018-11-07T09:15:43.643Z,12.04
2018-11-07T09:16:43.618Z,12.07
2018-11-07T09:17:43.598Z,12.09
2018-11-07T09:18:43.578Z,12.07
2018-11-07T09:19:43.558Z,12.20
2018-11-07T09:20:43.541Z,12.23
2018-11-07T09:21:43.529Z,12.19
2018-11-07T09:22:43.495Z,12.19
2018-11-07T09:23:43.471Z,12.23
2018-11-07T09:24:43.771Z,12.34
2018-11-07T09:25:43.431Z,12.31
2018-11-07T09:26:43.415Z,12.29
2018-11-07T09:27:43.390Z,12.31
2018-11-07T09:28:43.368Z,12.45
2018-11-07T09:29:43.357Z,12.49
2018-11-07T09:30:43.325Z,12.54
2018-11-07T09:31:43.317Z,12.64
2018-11-07T09:32:43.287Z,12.62
2018-11-07T09:33:43.266Z,12.74
2018-11-07T09:34:43.241Z,12.64
2018-11-07T09:35:43.222Z,12.65
2018-11-07T09:36:43.200Z,12.74
2018-11-07T09:37:43.188Z,12.77
2018-11-07T09:38:43.170Z,12.79
2018-11-07T09:39:43.218Z,12.87
2018-11-07T09:40:43.133Z,12.86
2018-11-07T09:41:43.099Z,12.86
2018-11-07T09:42:43.081Z,12.89
2018-11-07T09:43:43.056Z,12.86
2018-11-07T09:44:43.044Z,12.87
2018-11-07T09:45:43.019Z,12.87
2018-11-07T09:46:43.008Z,12.79
2018-11-07T09:47:42.974Z,12.90
2018-11-07T09:48:42.951Z,13.01
2018-11-07T09:49:42.936Z,12.96
2018-11-07T09:50:42.913Z,12.95
2018-11-07T09:51:42.890Z,13.07
2018-11-07T09:52:42.873Z,13.01
2018-11-07T09:53:42.859Z,13.12
2018-11-07T09:54:42.828Z,13.12
2018-11-07T09:55:42.815Z,13.11
2018-11-07T09:56:42.787Z,13.08
2018-11-07T09:57:42.768Z,13.17
2018-11-07T09:58:42.748Z,13.17
2018-11-07T09:59:42.726Z,13.23
2018-11-07T10:00:42.705Z,13.23
2018-11-07T10:01:42.686Z,13.25
2018-11-07T10:02:42.665Z,13.26
2018-11-07T10:03:42.648Z,13.20
2018-11-07T10:04:42.634Z,13.28
2018-11-07T10:05:42.722Z,13.32
2018-11-07T10:06:42.669Z,13.33
2018-11-07T10:07:42.562Z,13.44
2018-11-07T10:08:42.546Z,13.45
2018-11-07T10:09:42.526Z,13.41
2018-11-07T10:10:42.506Z,13.46
2018-11-07T10:11:42.480Z,13.59
2018-11-07T10:12:42.461Z,13.57
2018-11-07T10:13:42.443Z,13.62
2018-11-07T10:14:42.424Z,13.71
2018-11-07T10:15:42.400Z,13.70
2018-11-07T10:16:42.379Z,13.77
2018-11-07T10:17:42.376Z,13.70
2018-11-07T10:18:42.341Z,13.75
2018-11-07T10:19:42.322Z,13.71
2018-11-07T10:20:42.380Z,13.73
2018-11-07T10:21:42.279Z,13.73
2018-11-07T10:22:42.260Z,13.71
2018-11-07T10:23:42.236Z,13.85
2018-11-07T10:24:42.216Z,13.84
2018-11-07T10:25:42.196Z,13.81
2018-11-07T10:26:42.270Z,13.97
2018-11-07T10:27:42.581Z,14.03
2018-11-07T10:28:42.371Z,13.99
2018-11-07T10:29:42.396Z,13.92
2018-11-07T10:30:42.096Z,14.09
2018-11-07T10:31:42.081Z,14.04
2018-11-07T10:32:42.079Z,14.15
2018-11-07T10:33:42.036Z,14.20
2018-11-07T10:34:42.156Z,14.17
2018-11-07T10:35:41.997Z,14.14
2018-11-07T10:36:41.975Z,14.10
2018-11-07T10:37:42.014Z,14.12
2018-11-07T10:38:42.089Z,14.10
2018-11-07T10:39:41.984Z,14.22
2018-11-07T10:40:41.895Z,14.24
2018-11-07T10:41:41.875Z,14.28
2018-11-07T10:42:41.860Z,14.36
2018-11-07T10:43:41.840Z,14.39
2018-11-07T10:44:41.822Z,14.35
2018-11-07T10:45:41.801Z,14.33
2018-11-07T10:46:41.780Z,14.39
2018-11-07T10:47:41.760Z,14.43
2018-11-07T10:48:41.742Z,14.40
2018-11-07T10:49:41.716Z,14.40
2018-11-07T10:50:41.697Z,14.46
2018-11-07T10:51:41.723Z,14.42
2018-11-07T10:52:41.657Z,14.45
2018-11-07T10:53:41.641Z,14.54
2018-11-07T10:54:41.617Z,14.60
2018-11-07T10:55:41.613Z,14.54
2018-11-07T10:56:41.579Z,14.55
2018-11-07T10:57:41.558Z,14.58
2018-11-07T10:58:41.541Z,14.61
2018-11-07T10:59:41.519Z,14.64
2018-11-07T11:00:41.498Z,14.69
2018-11-07T11:01:41.480Z,14.64
2018-11-07T11:02:41.470Z,14.64
2018-11-07T11:03:41.450Z,14.65
2018-11-07T11:04:41.420Z,14.77
2018-11-07T11:05:41.410Z,14.75
2018-11-07T11:06:41.382Z,14.92
2018-11-07T11:07:41.369Z,14.94
2018-11-07T11:08:41.343Z,14.98
2018-11-07T11:09:41.328Z,14.96
2018-11-07T11:10:41.309Z,14.88
2018-11-07T11:11:41.283Z,15.03
2018-11-07T11:12:41.266Z,15.07
2018-11-07T11:13:41.248Z,15.03
2018-11-07T11:14:41.223Z,15.03
2018-11-07T11:15:41.207Z,14.99
2018-11-07T11:16:41.209Z,14.99
2018-11-07T11:17:41.174Z,15.13
2018-11-07T11:18:41.149Z,15.11
2018-11-07T11:19:41.126Z,15.23
2018-11-07T11:20:41.107Z,15.25
2018-11-07T11:21:41.087Z,15.38
2018-11-07T11:22:41.068Z,15.39
2018-11-07T11:23:41.047Z,15.39
2018-11-07T11:24:41.028Z,15.43
2018-11-07T11:25:41.044Z,15.53
2018-11-07T11:26:40.989Z,15.46
2018-11-07T11:27:40.970Z,15.44
2018-11-07T11:28:40.951Z,15.59
2018-11-07T11:29:40.931Z,15.46
2018-11-07T11:30:40.913Z,15.51
2018-11-07T11:31:40.932Z,15.53
2018-11-07T11:32:40.872Z,15.62
2018-11-07T11:33:40.871Z,15.71
2018-11-07T11:34:40.846Z,15.60
2018-11-07T11:35:40.813Z,15.68
2018-11-07T11:36:40.794Z,15.72
2018-11-07T11:37:40.779Z,15.74
2018-11-07T11:38:40.757Z,15.72
2018-11-07T11:39:40.736Z,15.90
2018-11-07T11:40:40.795Z,15.86
2018-11-07T11:41:40.698Z,15.84
2018-11-07T11:42:40.678Z,15.84
2018-11-07T11:43:40.657Z,15.90
2018-11-07T11:44:40.643Z,15.83
2018-11-07T11:45:40.622Z,15.87
2018-11-07T11:46:40.608Z,15.90
2018-11-07T11:47:40.583Z,15.84
2018-11-07T11:48:40.569Z,15.86
2018-11-07T11:49:40.545Z,15.96
2018-11-07T11:50:40.529Z,15.94
2018-11-07T11:51:40.507Z,15.89
2018-11-07T11:52:40.487Z,15.86
2018-11-07T11:53:40.470Z,16.01
2018-11-07T11:54:40.449Z,15.92
2018-11-07T11:55:40.431Z,15.92
2018-11-07T11:56:40.409Z,15.86
2018-11-07T11:57:40.393Z,15.87
2018-11-07T11:58:40.401Z,15.89
2018-11-07T11:59:40.624Z,15.80
2018-11-07T12:00:40.352Z,15.82
2018-11-07T12:01:40.321Z,15.86
2018-11-07T12:02:40.297Z,15.78
2018-11-07T12:03:40.291Z,15.71
2018-11-07T12:04:40.257Z,15.71
2018-11-07T12:05:40.245Z,15.69
2018-11-07T12:06:40.222Z,15.72
2018-11-07T12:07:40.200Z,15.68
2018-11-07T12:08:40.211Z,15.75
2018-11-07T12:09:40.162Z,15.71
2018-11-07T12:10:40.145Z,15.83
2018-11-07T12:11:40.159Z,15.80
2018-11-07T12:12:40.103Z,15.83
2018-11-07T12:13:40.085Z,15.97
2018-11-07T12:14:40.075Z,15.92
2018-11-07T12:15:40.053Z,15.96
2018-11-07T12:16:40.035Z,15.97
2018-11-07T12:17:40.040Z,16.04
2018-11-07T12:18:39.992Z,16.04
2018-11-07T12:19:39.970Z,16.09
2018-11-07T12:20:39.949Z,16.05
2018-11-07T12:21:39.933Z,16.25
2018-11-07T12:22:39.916Z,16.15
2018-11-07T12:23:39.892Z,16.24
2018-11-07T12:24:39.873Z,16.28
2018-11-07T12:25:39.862Z,16.20
2018-11-07T12:26:39.864Z,16.24
2018-11-07T12:27:39.815Z,16.27
2018-11-07T12:28:39.800Z,16.27
2018-11-07T12:29:39.779Z,16.23
2018-11-07T12:30:39.777Z,16.23
2018-11-07T12:31:39.741Z,16.31
2018-11-07T12:32:39.723Z,16.25
2018-11-07T12:33:39.703Z,16.23
2018-11-07T12:34:39.688Z,16.25
2018-11-07T12:35:39.667Z,16.30
2018-11-07T12:36:39.652Z,16.30
2018-11-07T12:37:39.638Z,16.23
2018-11-07T12:38:39.609Z,16.21
2018-11-07T12:39:39.595Z,16.09
2018-11-07T12:40:39.569Z,16.23
2018-11-07T12:41:39.552Z,16.20
2018-11-07T12:42:39.559Z,16.23
2018-11-07T12:43:39.514Z,16.17
2018-11-07T12:44:39.496Z,16.09
2018-11-07T12:45:39.479Z,16.02
2018-11-07T12:46:39.469Z,16.05
2018-11-07T12:47:39.442Z,15.89
2018-11-07T12:48:39.421Z,15.80
2018-11-07T12:49:39.470Z,15.86
2018-11-07T12:50:39.382Z,15.80
2018-11-07T12:51:39.363Z,15.86
2018-11-07T12:52:39.344Z,15.78
2018-11-07T12:53:39.339Z,15.83
2018-11-07T12:54:39.305Z,15.82
2018-11-07T12:55:39.286Z,15.78
2018-11-07T12:56:39.266Z,15.71
2018-11-07T12:57:39.339Z,15.74
2018-11-07T12:58:39.232Z,15.72
2018-11-07T12:59:39.213Z,15.76
2018-11-07T13:00:39.192Z,15.67
2018-11-07T13:01:39.176Z,15.71
2018-11-07T13:02:39.201Z,15.69
2018-11-07T13:03:39.135Z,15.82
2018-11-07T13:04:39.154Z,15.86
2018-11-07T13:05:39.106Z,15.93
2018-11-07T13:06:39.089Z,15.93
2018-11-07T13:07:39.065Z,16.04
2018-11-07T13:08:39.041Z,15.92
2018-11-07T13:09:39.025Z,16.05